Time;durP1;ratioP1;P1;durP2;ratioP2;P2;SDS_P1;SDS_P2;PMS_P1;PMS_P2;Temp;Humidity;BMP_temperature;BMP_pressure;BME280_temperature;BME280_humidity;BME280_pressure;Samples;Min_cycle;Max_cycle;Signal;HPM_P1;HPM_P2
2021/11/29 00:01:12;;;;;;;3.77;1.77;;;12.20;99.90;;;;;;6267762;22;20179;-88
2021/11/29 00:03:52;;;;;;;2.77;1.50;;;12.30;99.90;;;;;;6270670;22;20163;-86
2021/11/29 00:30:40;;;;;;;3.43;1.63;;;12.30;99.90;;;;;;6348601;22;20205;-87
2021/11/29 00:33:13;;;;;;;3.33;1.80;;;12.30;99.90;;;;;;6364940;22;20193;-86
2021/11/29 00:35:46;;;;;;;3.80;1.90;;;12.30;99.90;;;;;;6361876;22;20162;-87
2021/11/29 00:40:55;;;;;;;3.23;2.87;;;12.30;99.90;;;;;;6302925;22;20246;-86
2021/11/29 00:43:28;;;;;;;5.03;3.70;;;12.30;99.90;;;;;;6292144;22;20255;-85
2021/11/29 00:46:04;;;;;;;3.07;1.50;;;12.30;99.90;;;;;;6332833;22;20197;-86
2021/11/29 00:48:38;;;;;;;3.13;1.93;;;12.30;99.90;;;;;;6327086;22;20219;-87
2021/11/29 00:51:12;;;;;;;2.73;1.77;;;12.30;99.90;;;;;;6317631;22;20262;-87
2021/11/29 00:53:46;;;;;;;4.57;4.17;;;12.30;99.90;;;;;;6288721;22;20178;-87
2021/11/29 00:56:21;;;;;;;3.13;2.87;;;12.30;99.90;;;;;;6318082;22;20174;-89
2021/11/29 01:01:40;;;;;;;3.13;2.60;;;12.30;99.90;;;;;;6353022;22;20200;-88
2021/11/29 01:04:12;;;;;;;5.07;4.10;;;12.30;99.90;;;;;;6356663;22;20161;-88
2021/11/29 01:06:47;;;;;;;2.13;1.67;;;12.30;99.90;;;;;;6358275;22;20169;-88
2021/11/29 01:09:20;;;;;;;9.50;6.37;;;12.30;99.90;;;;;;6356057;22;20189;-88
2021/11/29 01:11:53;;;;;;;4.93;4.43;;;12.30;99.90;;;;;;6358755;22;20213;-87
2021/11/29 01:14:26;;;;;;;2.33;2.13;;;12.40;99.90;;;;;;6353981;22;20182;-87
2021/11/29 01:17:01;;;;;;;27.47;7.50;;;12.40;99.90;;;;;;6350801;22;20756;-87
2021/11/29 01:19:33;;;;;;;2.73;2.37;;;12.40;99.90;;;;;;6350692;22;20172;-88
2021/11/29 01:22:07;;;;;;;2.53;2.10;;;12.30;99.90;;;;;;6360182;22;20180;-89
2021/11/29 01:24:40;;;;;;;2.23;1.33;;;12.30;99.90;;;;;;6356063;22;20189;-88
2021/11/29 01:27:13;;;;;;;2.73;2.53;;;12.30;99.90;;;;;;6357925;22;20193;-88
2021/11/29 01:29:47;;;;;;;3.17;2.30;;;12.30;99.90;;;;;;6352048;22;20190;-87
2021/11/29 01:32:23;;;;;;;1.93;1.37;;;12.40;99.90;;;;;;6326167;22;20545;-89
2021/11/29 01:34:57;;;;;;;1.63;1.30;;;12.30;99.90;;;;;;6356709;22;20165;-87
2021/11/29 01:37:32;;;;;;;1.50;1.30;;;12.30;99.90;;;;;;6330268;22;20165;-87
2021/11/29 01:40:05;;;;;;;2.47;2.07;;;12.40;99.90;;;;;;6355608;22;20170;-87
2021/11/29 01:42:38;;;;;;;1.33;1.20;;;12.30;99.90;;;;;;6355141;22;20193;-87
2021/11/29 01:45:20;;;;;;;1.77;1.17;;;12.30;99.90;;;;;;6357940;22;20171;-87
2021/11/29 01:47:57;;;;;;;2.13;1.87;;;12.30;99.90;;;;;;6355145;22;20196;-86
2021/11/29 01:50:34;;;;;;;4.47;3.13;;;12.30;99.90;;;;;;6353634;22;20186;-88
2021/11/29 01:53:08;;;;;;;3.07;2.87;;;12.30;99.90;;;;;;6358267;22;20222;-87
2021/11/29 01:55:43;;;;;;;2.87;2.30;;;12.30;99.90;;;;;;6362635;22;20162;-88
2021/11/29 01:58:15;;;;;;;2.13;1.93;;;12.30;99.90;;;;;;6364612;22;20548;-88
2021/11/29 02:00:52;;;;;;;2.47;2.27;;;12.30;99.90;;;;;;6364919;22;20193;-86
2021/11/29 02:03:27;;;;;;;4.87;4.47;;;12.30;99.90;;;;;;6364966;22;20168;-87
2021/11/29 02:06:00;;;;;;;1.53;1.27;;;12.30;99.90;;;;;;6362633;22;20195;-87
2021/11/29 02:08:36;;;;;;;1.13;1.03;;;12.20;99.90;;;;;;6318497;22;20240;-87
2021/11/29 02:11:09;;;;;;;3.23;2.70;;;12.30;99.90;;;;;;6293115;22;20199;-87
2021/11/29 02:13:42;;;;;;;1.87;1.37;;;12.30;99.90;;;;;;6287807;22;20488;-86
2021/11/29 02:16:17;;;;;;;2.03;1.47;;;12.30;99.90;;;;;;6303063;22;20186;-87
2021/11/29 02:18:52;;;;;;;5.77;5.17;;;12.30;99.90;;;;;;6327432;22;20178;-87
2021/11/29 02:21:30;;;;;;;3.37;2.17;;;12.30;99.90;;;;;;6298554;22;20211;-87
2021/11/29 02:24:11;;;;;;;1.33;1.10;;;12.30;99.90;;;;;;6321156;22;20210;-87
2021/11/29 02:26:45;;;;;;;2.60;1.80;;;12.30;99.90;;;;;;6327090;22;20153;-87
2021/11/29 02:29:20;;;;;;;2.63;2.43;;;12.30;99.90;;;;;;6300587;22;20179;-88
2021/11/29 02:31:53;;;;;;;1.50;1.40;;;12.30;99.90;;;;;;6330559;22;20200;-89
2021/11/29 02:34:27;;;;;;;1.03;0.70;;;12.30;99.90;;;;;;6312793;22;20624;-87
2021/11/29 02:37:05;;;;;;;0.97;0.97;;;12.30;99.90;;;;;;6311409;22;20186;-87
2021/11/29 02:39:41;;;;;;;1.93;1.30;;;12.30;99.90;;;;;;6322930;22;20193;-88
2021/11/29 02:42:16;;;;;;;1.93;1.40;;;12.30;99.90;;;;;;6328448;22;20165;-88
2021/11/29 02:44:49;;;;;;;1.53;1.30;;;12.40;99.90;;;;;;6315750;22;20261;-88
2021/11/29 02:47:22;;;;;;;1.77;0.80;;;12.40;99.90;;;;;;6285062;22;20443;-87
2021/11/29 02:49:55;;;;;;;2.13;1.77;;;12.40;99.90;;;;;;6309101;22;20166;-87
2021/11/29 02:52:30;;;;;;;1.63;1.53;;;12.40;99.90;;;;;;6318064;22;20224;-87
2021/11/29 02:55:03;;;;;;;0.97;0.97;;;12.40;99.90;;;;;;6309224;22;20200;-87
2021/11/29 02:57:35;;;;;;;1.33;1.00;;;12.40;99.90;;;;;;6310521;22;20173;-87
2021/11/29 03:00:11;;;;;;;1.63;1.27;;;12.40;99.90;;;;;;6308631;22;20174;-87
2021/11/29 03:02:44;;;;;;;1.53;0.97;;;12.40;99.90;;;;;;6284333;22;20204;-87
2021/11/29 03:05:18;;;;;;;1.40;1.30;;;12.40;99.90;;;;;;6308286;22;20166;-87
2021/11/29 03:07:53;;;;;;;1.90;1.70;;;12.40;99.90;;;;;;6309542;22;20166;-87
2021/11/29 03:10:25;;;;;;;2.40;1.87;;;12.40;99.90;;;;;;6309528;22;20460;-87
2021/11/29 03:12:58;;;;;;;2.17;1.43;;;12.40;99.90;;;;;;6309855;22;20167;-88
2021/11/29 03:15:30;;;;;;;1.57;1.47;;;12.40;99.90;;;;;;6317149;22;20170;-87
2021/11/29 03:18:03;;;;;;;4.43;1.20;;;12.50;99.90;;;;;;6312952;22;20162;-86
2021/11/29 03:20:36;;;;;;;1.70;1.53;;;12.50;99.90;;;;;;6316324;22;20709;-88
2021/11/29 03:31:12;;;;;;;1.33;0.93;;;12.50;99.90;;;;;;6306223;22;20258;-88
2021/11/29 03:33:47;;;;;;;2.60;1.57;;;12.50;99.90;;;;;;6296351;22;20167;-88
2021/11/29 03:36:22;;;;;;;2.27;1.33;;;12.50;99.90;;;;;;6294586;22;20229;-88
2021/11/29 03:38:56;;;;;;;2.50;1.37;;;12.50;99.90;;;;;;6294456;22;20193;-88
2021/11/29 03:41:30;;;;;;;1.87;1.57;;;12.50;99.90;;;;;;6292370;22;20175;-88
2021/11/29 03:44:02;;;;;;;1.43;1.20;;;12.50;99.90;;;;;;6293782;22;20186;-86
2021/11/29 03:46:37;;;;;;;2.13;1.20;;;12.50;99.90;;;;;;6294358;22;20183;-87
2021/11/29 03:54:27;;;;;;;2.43;1.30;;;12.50;99.90;;;;;;6294928;22;20229;-88
2021/11/29 03:57:03;;;;;;;3.70;1.17;;;12.50;99.90;;;;;;6326755;22;20174;-89
2021/11/29 03:59:37;;;;;;;1.80;1.30;;;12.50;99.90;;;;;;6327493;22;20493;-88
2021/11/29 04:02:16;;;;;;;2.00;0.90;;;12.50;99.90;;;;;;6326200;22;20181;-89
2021/11/29 04:04:49;;;;;;;1.07;1.07;;;12.50;99.90;;;;;;6326153;22;20226;-88
2021/11/29 04:07:25;;;;;;;1.30;1.13;;;12.50;99.90;;;;;;6329109;22;20181;-88
2021/11/29 04:10:05;;;;;;;1.10;1.00;;;12.50;99.90;;;;;;6334130;22;20214;-88
2021/11/29 04:12:40;;;;;;;1.60;1.17;;;12.50;99.90;;;;;;6332323;22;20257;-88
2021/11/29 04:15:14;;;;;;;1.77;1.10;;;12.50;99.90;;;;;;6330527;22;20170;-88
2021/11/29 04:17:48;;;;;;;0.90;0.90;;;12.50;99.90;;;;;;6330765;22;20162;-83
2021/11/29 04:20:21;;;;;;;1.53;1.00;;;12.50;99.90;;;;;;6298113;22;20173;-88
2021/11/29 04:22:54;;;;;;;2.27;1.27;;;12.50;99.90;;;;;;6324151;22;20194;-88
2021/11/29 04:25:33;;;;;;;1.93;1.50;;;12.50;99.90;;;;;;6328909;22;20185;-91
2021/11/29 04:28:08;;;;;;;1.50;1.37;;;12.50;99.90;;;;;;6328426;22;20207;-92
2021/11/29 04:30:41;;;;;;;1.57;1.20;;;12.50;99.90;;;;;;6322907;22;20243;-93
2021/11/29 04:33:18;;;;;;;4.13;1.20;;;12.50;99.90;;;;;;6317165;22;20209;-91
2021/11/29 04:35:50;;;;;;;1.37;1.20;;;12.50;99.90;;;;;;6290767;22;20181;-90
2021/11/29 04:38:34;;;;;;;1.93;0.80;;;12.40;99.90;;;;;;6321620;22;20167;-90
2021/11/29 04:41:08;;;;;;;1.50;1.20;;;12.40;99.90;;;;;;6326377;22;20169;-91
2021/11/29 04:43:41;;;;;;;1.43;0.90;;;12.40;99.90;;;;;;6324071;22;20182;-90
2021/11/29 04:46:14;;;;;;;1.07;0.83;;;12.50;99.90;;;;;;6325037;22;20158;-91
2021/11/29 04:48:51;;;;;;;1.23;0.80;;;12.40;99.90;;;;;;6320913;22;20226;-91
2021/11/29 04:51:23;;;;;;;1.63;1.13;;;12.40;99.90;;;;;;6293428;22;20212;-91
2021/11/29 04:53:55;;;;;;;1.13;0.93;;;12.40;99.90;;;;;;6289706;22;20172;-91
2021/11/29 04:56:32;;;;;;;1.93;1.03;;;12.40;99.90;;;;;;6293449;22;20185;-90
2021/11/29 04:59:05;;;;;;;1.53;1.03;;;12.40;99.90;;;;;;6291979;22;20262;-91
2021/11/29 05:01:43;;;;;;;1.50;0.83;;;12.30;99.90;;;;;;6298604;22;20181;-91
2021/11/29 05:04:20;;;;;;;0.80;0.80;;;12.40;99.90;;;;;;6298935;22;20201;-91
2021/11/29 05:06:59;;;;;;;1.50;1.00;;;12.40;99.90;;;;;;6291026;22;20273;-90
2021/11/29 05:09:32;;;;;;;1.17;0.90;;;12.40;99.90;;;;;;6326929;22;20170;-90
2021/11/29 05:12:06;;;;;;;3.17;1.00;;;12.40;99.90;;;;;;6328418;22;20225;-91
2021/11/29 05:14:39;;;;;;;1.73;0.90;;;12.40;99.90;;;;;;6301408;22;20553;-90
2021/11/29 05:17:11;;;;;;;0.77;0.60;;;12.40;99.90;;;;;;6329083;22;20183;-91
2021/11/29 05:19:47;;;;;;;1.53;0.80;;;12.40;99.90;;;;;;6301540;22;20192;-91
2021/11/29 05:22:23;;;;;;;0.80;0.73;;;12.40;99.90;;;;;;6297012;22;20167;-92
2021/11/29 05:25:12;;;;;;;1.17;0.80;;;12.40;99.90;;;;;;6303227;22;20159;-91
2021/11/29 05:27:45;;;;;;;1.00;0.70;;;12.40;99.90;;;;;;6301624;22;20163;-92
2021/11/29 05:32:59;;;;;;;0.60;0.60;;;12.40;99.90;;;;;;6302237;22;20250;-89
2021/11/29 05:35:41;;;;;;;1.13;0.60;;;12.40;99.90;;;;;;6301899;22;20509;-92
2021/11/29 05:38:15;;;;;;;0.90;0.50;;;12.30;99.90;;;;;;6278078;22;20163;-91
2021/11/29 05:40:48;;;;;;;0.70;0.50;;;12.30;99.90;;;;;;6301519;22;20154;-91
2021/11/29 05:43:23;;;;;;;0.73;0.73;;;12.30;99.90;;;;;;6300611;22;20197;-91
2021/11/29 05:45:57;;;;;;;0.83;0.63;;;12.30;99.90;;;;;;6301108;22;20215;-92
2021/11/29 05:48:33;;;;;;;1.10;0.40;;;12.30;99.90;;;;;;6294886;22;20236;-93
2021/11/29 05:51:07;;;;;;;0.57;0.57;;;12.30;99.90;;;;;;6288563;22;20171;-91
2021/11/29 05:53:39;;;;;;;2.10;1.00;;;12.30;99.90;;;;;;6287446;22;20258;-91
2021/11/29 05:56:13;;;;;;;1.00;0.60;;;12.30;99.90;;;;;;6288168;22;20608;-91
2021/11/29 05:58:46;;;;;;;1.33;1.23;;;12.30;99.90;;;;;;6287227;22;20210;-92
2021/11/29 06:01:21;;;;;;;0.50;0.37;;;12.30;99.90;;;;;;6289979;22;20197;-91
2021/11/29 06:03:55;;;;;;;1.97;0.50;;;12.30;99.90;;;;;;6284188;22;20178;-90
2021/11/29 06:06:33;;;;;;;0.70;0.40;;;12.30;99.90;;;;;;6283351;22;20201;-92
2021/11/29 06:09:05;;;;;;;1.50;0.50;;;12.30;99.90;;;;;;6287081;22;20190;-91
2021/11/29 06:14:31;;;;;;;0.40;0.40;;;12.30;99.90;;;;;;6282599;22;20860;-91
2021/11/29 06:17:03;;;;;;;1.00;0.70;;;12.30;99.90;;;;;;6283757;22;20221;-91
2021/11/29 06:19:35;;;;;;;0.50;0.50;;;12.30;99.90;;;;;;6294702;22;20151;-91
2021/11/29 06:22:10;;;;;;;0.77;0.60;;;12.30;99.90;;;;;;6301569;22;20167;-92
2021/11/29 06:24:43;;;;;;;0.70;0.40;;;12.30;99.90;;;;;;6288033;22;20178;-91
2021/11/29 06:27:16;;;;;;;0.53;0.53;;;12.30;99.90;;;;;;6284409;22;20228;-91
2021/11/29 06:29:49;;;;;;;0.70;0.50;;;12.30;99.90;;;;;;6290258;22;20155;-91
2021/11/29 06:32:26;;;;;;;0.60;0.60;;;12.30;99.90;;;;;;6292884;22;20577;-91
2021/11/29 06:34:58;;;;;;;0.60;0.40;;;12.20;99.90;;;;;;6288385;22;20191;-91
2021/11/29 06:37:34;;;;;;;3.07;0.50;;;12.30;99.90;;;;;;6282978;22;20167;-90
2021/11/29 06:40:08;;;;;;;1.17;0.50;;;12.30;99.90;;;;;;6282598;22;20175;-92
2021/11/29 06:42:40;;;;;;;0.80;0.50;;;12.30;99.90;;;;;;6282088;22;20175;-92
2021/11/29 06:45:13;;;;;;;0.77;0.50;;;12.30;99.90;;;;;;6280410;22;20179;-92
2021/11/29 06:47:46;;;;;;;0.60;0.60;;;12.30;99.90;;;;;;6281337;22;20167;-91
2021/11/29 06:50:19;;;;;;;0.70;0.70;;;12.30;99.90;;;;;;6283275;22;20186;-92
2021/11/29 06:52:56;;;;;;;0.90;0.60;;;12.30;99.90;;;;;;6279663;22;20213;-90
2021/11/29 06:55:32;;;;;;;0.80;0.50;;;12.30;99.90;;;;;;6281295;22;20174;-90
2021/11/29 06:58:07;;;;;;;1.37;0.70;;;12.30;99.90;;;;;;6282437;22;20518;-91
2021/11/29 07:00:39;;;;;;;0.97;0.80;;;12.30;99.90;;;;;;6280642;22;20193;-90
2021/11/29 07:03:15;;;;;;;1.87;0.60;;;12.30;99.90;;;;;;6279464;22;20177;-91
2021/11/29 07:05:51;;;;;;;1.63;0.70;;;12.20;99.90;;;;;;6280166;22;20573;-91
2021/11/29 07:08:26;;;;;;;1.00;0.50;;;12.20;99.90;;;;;;6254617;22;20848;-89
2021/11/29 07:11:00;;;;;;;0.83;0.50;;;12.20;99.90;;;;;;6288808;22;20584;-90
2021/11/29 07:13:32;;;;;;;0.70;0.50;;;12.20;99.90;;;;;;6282079;22;20199;-91
2021/11/29 07:16:05;;;;;;;1.07;0.73;;;12.20;99.90;;;;;;6278896;22;20178;-91
2021/11/29 07:18:38;;;;;;;0.53;0.50;;;12.20;99.90;;;;;;6280746;22;20179;-91
2021/11/29 07:21:13;;;;;;;0.70;0.70;;;12.20;99.90;;;;;;6282839;22;20216;-90
2021/11/29 07:23:50;;;;;;;0.50;0.40;;;12.20;99.90;;;;;;6280190;22;20426;-90
2021/11/29 07:26:22;;;;;;;0.90;0.50;;;12.20;99.90;;;;;;6278466;22;20166;-90
2021/11/29 07:28:54;;;;;;;0.50;0.50;;;12.20;99.90;;;;;;6278845;22;20174;-91
2021/11/29 07:31:26;;;;;;;1.43;0.60;;;12.20;99.90;;;;;;6278588;22;20185;-92
2021/11/29 07:34:00;;;;;;;0.43;0.43;;;12.20;99.90;;;;;;6277440;22;20282;-90
2021/11/29 07:36:32;;;;;;;0.73;0.73;;;12.20;99.90;;;;;;6278346;22;20175;-90
2021/11/29 07:39:10;;;;;;;0.70;0.43;;;12.20;99.90;;;;;;6289818;22;20343;-90
2021/11/29 07:41:43;;;;;;;2.20;0.90;;;12.20;99.90;;;;;;6298572;22;20194;-91
2021/11/29 07:44:17;;;;;;;0.60;0.60;;;12.20;99.90;;;;;;6297703;22;20178;-91
2021/11/29 07:46:50;;;;;;;1.43;0.70;;;12.10;99.90;;;;;;6286987;22;20171;-91
2021/11/29 07:49:22;;;;;;;2.00;0.80;;;12.20;99.90;;;;;;6283460;22;20179;-91
2021/11/29 07:51:55;;;;;;;0.80;0.70;;;12.20;99.90;;;;;;6283445;22;20259;-91
2021/11/29 07:54:30;;;;;;;0.80;0.70;;;12.20;99.90;;;;;;6279633;22;20210;-92
2021/11/29 07:57:04;;;;;;;0.97;0.57;;;12.20;99.90;;;;;;6282749;22;20175;-90
2021/11/29 07:59:37;;;;;;;1.00;0.90;;;12.20;99.90;;;;;;6281761;22;20246;-91
2021/11/29 08:02:26;;;;;;;1.37;0.97;;;12.20;99.90;;;;;;6282083;22;20269;-90
2021/11/29 08:05:00;;;;;;;2.97;0.70;;;12.20;99.90;;;;;;6281809;22;20214;-89
2021/11/29 08:07:34;;;;;;;1.33;0.90;;;12.20;99.90;;;;;;6282245;22;20201;-90
2021/11/29 08:10:09;;;;;;;2.07;0.80;;;12.20;99.90;;;;;;6280238;22;20255;-91
2021/11/29 08:12:42;;;;;;;1.50;0.80;;;12.10;99.90;;;;;;6280144;22;20500;-92
2021/11/29 08:15:16;;;;;;;0.93;0.83;;;12.20;99.90;;;;;;6278765;22;20242;-90
2021/11/29 08:17:49;;;;;;;0.70;0.60;;;12.10;99.90;;;;;;6280296;22;20173;-90
2021/11/29 08:20:24;;;;;;;0.80;0.80;;;12.20;99.90;;;;;;6280769;22;20187;-91
2021/11/29 08:22:57;;;;;;;0.87;0.80;;;12.10;99.90;;;;;;6280861;22;20250;-91
2021/11/29 08:25:32;;;;;;;2.63;0.80;;;12.20;99.90;;;;;;6279977;22;20164;-91
2021/11/29 08:28:05;;;;;;;1.80;0.90;;;12.20;99.90;;;;;;6281407;22;20163;-91
2021/11/29 08:30:37;;;;;;;0.70;0.60;;;12.20;99.90;;;;;;6295691;22;20163;-91
2021/11/29 08:33:12;;;;;;;1.03;0.80;;;12.20;99.90;;;;;;6301448;22;20193;-93
2021/11/29 08:35:46;;;;;;;1.13;0.80;;;12.10;99.90;;;;;;6301069;22;20227;-91
2021/11/29 08:38:20;;;;;;;1.20;0.60;;;12.10;99.90;;;;;;6298520;22;20181;-92
2021/11/29 08:40:57;;;;;;;2.30;0.87;;;12.10;99.90;;;;;;6291351;22;20175;-91
2021/11/29 08:43:38;;;;;;;0.90;0.70;;;12.10;99.90;;;;;;6298269;22;20242;-92
2021/11/29 08:46:13;;;;;;;4.07;0.90;;;12.10;99.90;;;;;;6288755;22;20185;-91
2021/11/29 08:48:46;;;;;;;1.57;0.60;;;12.10;99.90;;;;;;6286903;22;20170;-91
2021/11/29 08:51:18;;;;;;;0.87;0.60;;;12.10;99.90;;;;;;6280889;22;20183;-91
2021/11/29 08:53:51;;;;;;;0.60;0.60;;;12.10;99.90;;;;;;6279764;22;20233;-91
2021/11/29 08:56:26;;;;;;;1.53;0.80;;;12.10;99.90;;;;;;6281449;22;20250;-91
2021/11/29 08:58:58;;;;;;;0.80;0.80;;;12.10;99.90;;;;;;6280866;22;20209;-91
2021/11/29 09:01:30;;;;;;;0.90;0.90;;;12.10;99.90;;;;;;6280570;22;20167;-91
2021/11/29 09:04:03;;;;;;;0.90;0.70;;;12.10;99.90;;;;;;6277839;22;20636;-91
2021/11/29 09:06:36;;;;;;;1.57;0.70;;;12.10;99.90;;;;;;6292261;22;20661;-91
2021/11/29 09:09:09;;;;;;;1.20;0.60;;;12.10;99.90;;;;;;6280573;22;20255;-91
2021/11/29 09:11:44;;;;;;;0.90;0.77;;;12.10;99.90;;;;;;6280066;22;20254;-91
2021/11/29 09:14:17;;;;;;;0.93;0.87;;;12.10;99.90;;;;;;6278814;22;20522;-89
2021/11/29 09:16:49;;;;;;;0.70;0.70;;;12.10;99.90;;;;;;6279502;22;20167;-91
2021/11/29 09:19:22;;;;;;;1.20;0.60;;;12.10;99.90;;;;;;6286619;22;20167;-91
2021/11/29 09:21:55;;;;;;;1.17;0.70;;;12.10;99.90;;;;;;6288726;22;20562;-91
2021/11/29 09:24:28;;;;;;;1.07;0.70;;;12.10;99.90;;;;;;6285041;22;20179;-91
2021/11/29 09:27:04;;;;;;;0.67;0.60;;;12.10;99.90;;;;;;6280567;22;20163;-92
2021/11/29 09:29:36;;;;;;;0.47;0.47;;;12.10;99.90;;;;;;6280851;22;20833;-91
2021/11/29 09:32:10;;;;;;;0.63;0.57;;;12.10;99.90;;;;;;6280651;22;20254;-91
2021/11/29 09:34:43;;;;;;;0.70;0.70;;;12.10;99.90;;;;;;6280190;22;20252;-92
2021/11/29 09:37:16;;;;;;;0.73;0.57;;;12.10;99.90;;;;;;6280460;22;20171;-92
2021/11/29 09:39:53;;;;;;;0.60;0.60;;;12.10;99.90;;;;;;6280211;22;20186;-91
2021/11/29 09:42:29;;;;;;;0.90;0.70;;;12.10;99.90;;;;;;6279193;22;20164;-91
2021/11/29 09:45:02;;;;;;;1.17;0.63;;;12.10;99.90;;;;;;6278327;22;20171;-92
2021/11/29 09:47:35;;;;;;;0.50;0.50;;;12.00;99.90;;;;;;6279665;22;20195;-91
2021/11/29 09:50:09;;;;;;;0.90;0.70;;;12.00;99.90;;;;;;6279394;22;20172;-91
2021/11/29 09:52:42;;;;;;;1.00;0.70;;;12.10;99.90;;;;;;6278975;22;20179;-90
2021/11/29 09:55:16;;;;;;;1.03;0.90;;;12.00;99.90;;;;;;6281053;22;20570;-91
2021/11/29 09:57:51;;;;;;;0.70;0.70;;;12.10;99.90;;;;;;6282984;22;20167;-92
2021/11/29 10:00:25;;;;;;;1.03;0.70;;;12.00;99.90;;;;;;6279900;22;20171;-91
2021/11/29 10:02:57;;;;;;;1.10;0.60;;;12.00;99.90;;;;;;6277955;22;20175;-90
2021/11/29 10:05:31;;;;;;;0.80;0.80;;;12.00;99.90;;;;;;6279863;22;20190;-90
2021/11/29 10:08:20;;;;;;;1.10;0.70;;;12.00;99.90;;;;;;6279256;22;20159;-90
2021/11/29 10:10:54;;;;;;;0.90;0.83;;;12.10;99.90;;;;;;6276731;22;20190;-90
2021/11/29 10:13:30;;;;;;;0.90;0.83;;;12.00;99.90;;;;;;6252564;22;20843;-90
2021/11/29 10:16:02;;;;;;;1.43;1.00;;;12.00;99.90;;;;;;6279641;22;20190;-90
2021/11/29 10:18:34;;;;;;;1.77;0.80;;;12.00;99.90;;;;;;6279072;22;20179;-90
2021/11/29 10:21:08;;;;;;;2.13;0.70;;;12.00;99.90;;;;;;6278680;22;20291;-91
2021/11/29 10:23:42;;;;;;;0.80;0.80;;;12.00;99.90;;;;;;6277935;22;20577;-91
2021/11/29 10:26:23;;;;;;;0.73;0.73;;;12.00;99.90;;;;;;6278563;22;20187;-90
2021/11/29 10:29:00;;;;;;;0.60;0.50;;;12.00;99.90;;;;;;6278662;22;20609;-91
2021/11/29 10:31:37;;;;;;;0.83;0.83;;;11.90;99.90;;;;;;6279672;22;20174;-91
2021/11/29 10:34:11;;;;;;;0.97;0.90;;;11.90;99.90;;;;;;6277831;22;20313;-91
2021/11/29 10:36:45;;;;;;;1.20;0.77;;;11.90;99.90;;;;;;6279334;22;20179;-91
2021/11/29 10:39:20;;;;;;;0.80;0.70;;;11.90;99.90;;;;;;6278989;22;20167;-95
2021/11/29 10:41:54;;;;;;;0.60;0.60;;;11.90;99.90;;;;;;6280295;22;20175;-91
2021/11/29 10:44:34;;;;;;;0.80;0.80;;;11.90;99.90;;;;;;6279671;22;20259;-92
2021/11/29 10:47:08;;;;;;;2.20;1.00;;;11.90;99.90;;;;;;6291504;22;20226;-92
2021/11/29 10:49:46;;;;;;;1.07;1.07;;;11.90;99.90;;;;;;6300884;22;20194;-91
2021/11/29 10:52:21;;;;;;;1.00;1.00;;;11.90;99.90;;;;;;6299745;22;20155;-91
2021/11/29 10:54:54;;;;;;;1.73;1.10;;;11.90;99.90;;;;;;6294026;22;20198;-90
2021/11/29 10:57:27;;;;;;;2.50;1.23;;;11.90;99.90;;;;;;6290964;22;20223;-90
2021/11/29 11:00:13;;;;;;;3.03;1.10;;;11.90;99.90;;;;;;6281062;22;20186;-89
2021/11/29 11:03:00;;;;;;;1.33;1.20;;;11.90;99.90;;;;;;6279085;22;20173;-91
2021/11/29 11:05:37;;;;;;;1.07;1.00;;;11.90;99.90;;;;;;6280379;22;20233;-91
2021/11/29 11:08:16;;;;;;;1.30;1.20;;;11.90;99.90;;;;;;6255043;22;20163;-90
2021/11/29 11:10:48;;;;;;;1.30;1.20;;;11.90;99.90;;;;;;6277129;22;20179;-92
2021/11/29 11:13:20;;;;;;;1.33;1.00;;;11.90;99.90;;;;;;6277909;22;20175;-91
2021/11/29 11:15:56;;;;;;;1.07;1.00;;;11.90;99.90;;;;;;6284927;22;20213;-91
2021/11/29 11:18:41;;;;;;;1.63;1.20;;;11.90;99.90;;;;;;6280305;22;20178;-91
2021/11/29 11:21:18;;;;;;;1.53;1.20;;;11.90;99.90;;;;;;6281473;22;20225;-91
2021/11/29 11:23:50;;;;;;;2.90;1.00;;;11.80;99.90;;;;;;6278513;22;20175;-91
2021/11/29 11:26:36;;;;;;;0.90;0.90;;;11.80;99.90;;;;;;6278994;22;20251;-91
2021/11/29 11:29:09;;;;;;;1.77;0.90;;;11.80;99.90;;;;;;6279381;22;20233;-90
2021/11/29 11:31:44;;;;;;;0.80;0.80;;;11.80;99.90;;;;;;6279746;22;20237;-90
2021/11/29 11:34:16;;;;;;;1.20;1.10;;;11.80;99.90;;;;;;6278664;22;20190;-90
2021/11/29 11:36:49;;;;;;;0.97;0.97;;;11.80;99.90;;;;;;6279049;22;20243;-91
2021/11/29 11:39:21;;;;;;;0.93;0.93;;;11.80;99.90;;;;;;6279310;22;20179;-91
2021/11/29 11:41:57;;;;;;;2.20;0.90;;;11.80;99.90;;;;;;6279853;22;20589;-91
2021/11/29 11:44:30;;;;;;;0.90;0.90;;;11.80;99.90;;;;;;6275766;22;20321;-91
2021/11/29 11:47:08;;;;;;;1.37;0.87;;;11.90;99.90;;;;;;6279914;22;20187;-91
2021/11/29 11:49:43;;;;;;;0.97;0.60;;;11.90;99.90;;;;;;6278119;22;20194;-90
2021/11/29 11:52:21;;;;;;;0.77;0.77;;;11.90;99.90;;;;;;6278827;22;20167;-92
2021/11/29 11:54:57;;;;;;;0.73;0.73;;;11.90;99.90;;;;;;6279413;22;20183;-91
2021/11/29 11:57:52;;;;;;;0.73;0.73;;;11.90;99.90;;;;;;6277647;22;20205;-91
2021/11/29 12:00:30;;;;;;;1.43;1.00;;;11.90;99.90;;;;;;6277890;22;20163;-91
2021/11/29 12:03:17;;;;;;;1.10;1.00;;;11.90;99.90;;;;;;6277601;22;20205;-92
2021/11/29 12:05:58;;;;;;;1.07;1.03;;;11.90;99.90;;;;;;6278971;22;20194;-91
2021/11/29 12:08:47;;;;;;;1.73;1.17;;;11.90;99.90;;;;;;6277704;22;20167;-92
2021/11/29 12:11:41;;;;;;;1.20;1.10;;;11.90;99.90;;;;;;6277266;22;20167;-91
2021/11/29 12:14:19;;;;;;;1.30;1.20;;;11.90;99.90;;;;;;6279700;22;20178;-91
2021/11/29 12:16:53;;;;;;;1.63;1.30;;;11.80;99.90;;;;;;6279643;22;20248;-91
2021/11/29 12:19:43;;;;;;;1.30;1.20;;;11.80;99.90;;;;;;6279630;22;20250;-92
2021/11/29 12:22:36;;;;;;;2.90;1.60;;;11.80;99.90;;;;;;6278274;22;20164;-92
2021/11/29 12:25:24;;;;;;;2.07;1.40;;;11.80;99.90;;;;;;6279506;22;20163;-90
2021/11/29 12:27:59;;;;;;;4.50;1.87;;;11.80;99.90;;;;;;6278268;22;20179;-91
2021/11/29 12:30:40;;;;;;;2.27;1.63;;;11.80;99.90;;;;;;6278858;22;20171;-90
2021/11/29 12:33:16;;;;;;;2.27;1.90;;;11.80;99.90;;;;;;6278430;22;20182;-91
2021/11/29 12:35:58;;;;;;;2.47;1.67;;;11.80;99.90;;;;;;6279114;22;20197;-91
2021/11/29 12:38:30;;;;;;;1.67;1.50;;;11.80;99.90;;;;;;6278940;22;20235;-91
2021/11/29 12:41:07;;;;;;;1.60;1.50;;;11.80;99.90;;;;;;6278248;22;20216;-91
2021/11/29 12:43:42;;;;;;;1.70;1.60;;;11.80;99.90;;;;;;6277929;22;20174;-91
2021/11/29 12:46:29;;;;;;;2.97;1.73;;;11.80;99.90;;;;;;6280297;22;20637;-90
2021/11/29 12:49:04;;;;;;;1.80;1.60;;;11.80;99.90;;;;;;6281710;22;20163;-91
2021/11/29 12:51:56;;;;;;;1.70;1.60;;;11.90;99.90;;;;;;6280464;22;20170;-93
2021/11/29 12:54:47;;;;;;;2.63;2.03;;;11.80;99.90;;;;;;6281125;22;20179;-91
2021/11/29 12:57:37;;;;;;;1.90;1.73;;;11.80;99.90;;;;;;6293265;22;20196;-93
2021/11/29 13:00:13;;;;;;;1.90;1.70;;;11.80;99.90;;;;;;6302711;22;20175;-91
2021/11/29 13:02:50;;;;;;;2.43;1.70;;;11.80;99.90;;;;;;6300039;22;20202;-90
2021/11/29 13:05:34;;;;;;;1.70;1.40;;;11.90;99.90;;;;;;6292603;22;20174;-90
2021/11/29 13:08:19;;;;;;;3.40;1.50;;;11.90;99.90;;;;;;6281269;22;20605;-91
2021/11/29 13:10:57;;;;;;;2.37;1.40;;;11.80;99.90;;;;;;6282542;22;20748;-91
2021/11/29 13:13:34;;;;;;;1.40;1.30;;;11.90;99.90;;;;;;6279388;22;20201;-91
2021/11/29 13:16:09;;;;;;;2.77;1.47;;;11.80;99.90;;;;;;6280186;22;20211;-92
2021/11/29 13:19:04;;;;;;;1.87;1.40;;;11.80;99.90;;;;;;6280087;22;20206;-91
2021/11/29 13:21:40;;;;;;;1.60;1.43;;;11.90;99.90;;;;;;6289932;22;20218;-94
2021/11/29 13:24:20;;;;;;;1.87;1.43;;;11.90;99.90;;;;;;6311177;22;20268;-91
2021/11/29 13:26:55;;;;;;;2.87;1.50;;;11.90;99.90;;;;;;6316357;22;20174;-91
2021/11/29 13:29:31;;;;;;;2.00;1.40;;;11.90;99.90;;;;;;6315572;22;20173;-90
2021/11/29 13:32:06;;;;;;;1.50;1.40;;;11.90;99.90;;;;;;6321774;22;20184;-90
2021/11/29 13:34:49;;;;;;;2.20;1.80;;;11.80;99.90;;;;;;6330755;22;20185;-90
2021/11/29 13:37:24;;;;;;;1.50;1.40;;;11.80;99.90;;;;;;6331480;22;20234;-90
2021/11/29 13:40:02;;;;;;;1.53;1.43;;;11.80;99.90;;;;;;6326810;22;20224;-90
2021/11/29 13:42:39;;;;;;;2.37;1.57;;;11.70;99.90;;;;;;6314935;22;20271;-91
2021/11/29 13:45:13;;;;;;;3.43;1.50;;;11.70;99.90;;;;;;6316268;22;20500;-91
2021/11/29 13:47:51;;;;;;;2.03;1.47;;;11.70;99.90;;;;;;6320762;22;20178;-91
2021/11/29 13:50:25;;;;;;;1.60;1.50;;;11.70;99.90;;;;;;6313442;22;20169;-91
2021/11/29 13:53:02;;;;;;;1.33;1.10;;;11.70;99.90;;;;;;6311924;22;20175;-91
2021/11/29 13:55:41;;;;;;;1.40;1.30;;;11.70;99.90;;;;;;6311872;22;20203;-91
2021/11/29 13:58:20;;;;;;;1.97;1.43;;;11.70;99.90;;;;;;6309150;22;20174;-91
2021/11/29 14:00:54;;;;;;;1.30;1.20;;;11.70;99.90;;;;;;6309705;22;20229;-91
2021/11/29 14:03:28;;;;;;;1.50;1.40;;;11.70;99.90;;;;;;6307562;22;20177;-91
2021/11/29 14:06:04;;;;;;;1.30;1.17;;;11.70;99.90;;;;;;6308493;22;20170;-91
2021/11/29 14:08:37;;;;;;;1.30;1.20;;;11.70;99.90;;;;;;6310590;22;20176;-90
2021/11/29 14:11:14;;;;;;;1.20;1.10;;;11.60;99.90;;;;;;6311708;22;20221;-91
2021/11/29 14:13:49;;;;;;;1.30;1.20;;;11.70;99.90;;;;;;6308120;22;20339;-91
2021/11/29 14:16:28;;;;;;;1.63;1.10;;;11.70;99.90;;;;;;6308222;22;20189;-91
2021/11/29 14:19:02;;;;;;;1.30;1.10;;;11.70;99.90;;;;;;6343303;22;20174;-91